METAR Data
IDs: Format: Raw Decoded Include TAF

Data at: 2322 UTC 29 May 2020

METAR for:KFSW (Fort Madison Muni, IA, US)
Text:KFSW 292315Z AUTO 33010KT 10SM CLR 20/11 A3012 RMK AO2
Temperature: 20.0°C ( 68°F)
Dewpoint: 11.0°C ( 52°F) [RH = 56%]
Pressure (altimeter):30.12 inches Hg (1020.1 mb)
Winds:from the NNW (330 degrees) at 12 MPH (10 knots; 5.1 m/s)
Visibility:10 or more sm (16+ km)
Ceiling:at least 12,000 feet AGL
Clouds:sky clear below 12,000 feet AGL
QC Flag:automated observation with no human augmentation